Vejrstation Sortsø Strand
Vejrstation Sortsø Strands historiske vejrdata
Daily Summary for December 02, 2020 Units:  English    Metric   Both
Daily Weekly Monthly Yearly Custom
  High: Low: Average:
Temperature: 42.8 °F 35.6 °F 39.2 °F
Dew Point: 39.2 °F 32 °F 36.1 °F
Humidity: 90% 86% 88%
Wind Speed: 14.3mph 0mph 6.4mph
Wind Gust: 9.9mph - -
Wind- - ESE
Pressure: 30.2 in 29.9 in -
Precipitation: 0 in    
Historical Graphs
 
 
Tabular Data for December 02, 2020
Time Temperature Dew Point Pressure Wind Wind Speed Wind Gust Humidity Rainfall Rate (Hourly) solar
00:04 42.8 °F 39.2 °F 30.2 in East 3.7 mph 3.1 mph 88% 0 in 0.00 W/m2
00:09 41 °F 39.2 °F 30.2 in East 3.7 mph 2.5 mph 88% 0 in 0.00 W/m2
00:14 41 °F 39.2 °F 30.2 in East 2.5 mph 1.9 mph 88% 0 in 0.00 W/m2
00:19 42.8 °F 39.2 °F 30.2 in East 6.2 mph 4.3 mph 88% 0 in 0.00 W/m2
00:24 42.8 °F 39.2 °F 30.2 in East 3.7 mph 3.7 mph 88% 0 in 0.00 W/m2
00:29 41 °F 39.2 °F 30.2 in East 5 mph 4.3 mph 88% 0 in 0.00 W/m2
00:34 42.8 °F 37.4 °F 30.2 in East 6.2 mph 5 mph 87% 0 in 0.00 W/m2
00:39 42.8 °F 39.2 °F 30.2 in East 6.2 mph 5 mph 88% 0 in 0.00 W/m2
00:44 42.8 °F 39.2 °F 30.2 in East 6.2 mph 5 mph 87% 0 in 0.00 W/m2
00:49 42.8 °F 39.2 °F 30.2 in East 6.2 mph 5.6 mph 87% 0 in 0.00 W/m2
00:54 42.8 °F 39.2 °F 30.2 in ENE 8.1 mph 6.2 mph 87% 0 in 0.00 W/m2
00:59 42.8 °F 39.2 °F 30.2 in ENE 9.3 mph 6.8 mph 87% 0 in 0.00 W/m2
01:04 42.8 °F 39.2 °F 30.2 in ENE 6.8 mph 5 mph 87% 0 in 0.00 W/m2
01:09 42.8 °F 39.2 °F 30.2 in ENE 6.8 mph 5.6 mph 86% 0 in 0.00 W/m2
01:14 42.8 °F 39.2 °F 30.2 in ENE 6.8 mph 5.6 mph 86% 0 in 0.00 W/m2
01:19 42.8 °F 39.2 °F 30.2 in ENE 6.2 mph 5 mph 86% 0 in 0.00 W/m2
01:24 42.8 °F 39.2 °F 30.2 in ENE 6.8 mph 5.6 mph 86% 0 in 0.00 W/m2
01:29 42.8 °F 39.2 °F 30.2 in ENE 6.2 mph 5 mph 86% 0 in 0.00 W/m2
01:34 42.8 °F 39.2 °F 30.2 in ENE 6.2 mph 5 mph 86% 0 in 0.00 W/m2
01:39 42.8 °F 39.2 °F 30.2 in ENE 6.2 mph 4.3 mph 86% 0 in 0.00 W/m2
01:44 42.8 °F 37.4 °F 30.2 in ENE 6.2 mph 5 mph 86% 0 in 0.00 W/m2
01:49 42.8 °F 37.4 °F 30.2 in ENE 6.8 mph 5 mph 86% 0 in 0.00 W/m2
01:54 42.8 °F 39.2 °F 30.2 in ENE 6.8 mph 5.6 mph 87% 0 in 0.00 W/m2
01:59 42.8 °F 39.2 °F 30.2 in ENE 6.2 mph 5 mph 87% 0 in 0.00 W/m2
02:04 42.8 °F 39.2 °F 30.2 in ENE 6.2 mph 5 mph 87% 0 in 0.00 W/m2
02:09 42.8 °F 39.2 °F 30.2 in East 10.6 mph 8.7 mph 87% 0 in 0.00 W/m2
02:14 42.8 °F 39.2 °F 30.2 in East 11.8 mph 8.7 mph 87% 0 in 0.00 W/m2
02:19 42.8 °F 39.2 °F 30.2 in East 8.1 mph 6.8 mph 87% 0 in 0.00 W/m2
02:24 42.8 °F 39.2 °F 30.2 in East 6.8 mph 5 mph 87% 0 in 0.00 W/m2
02:29 42.8 °F 39.2 °F 30.2 in East 6.8 mph 6.2 mph 87% 0 in 0.00 W/m2
02:34 42.8 °F 39.2 °F 30.2 in East 10.6 mph 8.1 mph 87% 0 in 0.00 W/m2
02:39 42.8 °F 39.2 °F 30.2 in East 9.3 mph 8.1 mph 87% 0 in 0.00 W/m2
02:44 42.8 °F 39.2 °F 30.2 in East 8.1 mph 6.8 mph 87% 0 in 0.00 W/m2
02:49 42.8 °F 39.2 °F 30.2 in East 9.9 mph 7.5 mph 87% 0 in 0.00 W/m2
02:54 42.8 °F 39.2 °F 30.2 in East 11.8 mph 9.3 mph 87% 0 in 0.00 W/m2
02:59 42.8 °F 39.2 °F 30.2 in East 10.6 mph 8.1 mph 87% 0 in 0.00 W/m2
03:04 42.8 °F 39.2 °F 30.2 in East 11.8 mph 7.5 mph 87% 0 in 0.00 W/m2
03:09 42.8 °F 39.2 °F 30.2 in East 11.8 mph 6.8 mph 87% 0 in 0.00 W/m2
03:14 42.8 °F 39.2 °F 30.2 in East 10.6 mph 8.1 mph 87% 0 in 0.00 W/m2
03:19 42.8 °F 39.2 °F 30.2 in East 10.6 mph 8.1 mph 87% 0 in 0.00 W/m2
03:24 42.8 °F 37.4 °F 30.2 in East 10.6 mph 8.1 mph 86% 0 in 0.00 W/m2
03:29 42.8 °F 37.4 °F 30.2 in East 11.8 mph 9.9 mph 87% 0 in 0.00 W/m2
03:34 42.8 °F 37.4 °F 30.2 in East 10.6 mph 8.1 mph 87% 0 in 0.00 W/m2
03:39 41 °F 37.4 °F 30.2 in East 10.6 mph 7.5 mph 87% 0 in 0.00 W/m2
03:44 41 °F 37.4 °F 30.2 in East 11.8 mph 9.3 mph 87% 0 in 0.00 W/m2
03:49 42.8 °F 37.4 °F 30.2 in East 11.8 mph 9.3 mph 87% 0 in 0.00 W/m2
03:54 42.8 °F 37.4 °F 30.2 in East 11.8 mph 8.7 mph 87% 0 in 0.00 W/m2
03:59 42.8 °F 37.4 °F 30.2 in East 10.6 mph 8.1 mph 87% 0 in 0.00 W/m2
04:04 41 °F 37.4 °F 30.2 in East 11.8 mph 9.3 mph 87% 0 in 0.00 W/m2
04:09 41 °F 37.4 °F 30.2 in East 10.6 mph 8.1 mph 87% 0 in 0.00 W/m2
04:14 41 °F 37.4 °F 30.2 in East 11.8 mph 8.7 mph 87% 0 in 0.00 W/m2
04:19 41 °F 37.4 °F 30.2 in East 10.6 mph 8.7 mph 87% 0 in 0.00 W/m2
04:24 41 °F 37.4 °F 30.2 in East 10.6 mph 8.7 mph 87% 0 in 0.00 W/m2
04:29 41 °F 37.4 °F 30.2 in East 9.3 mph 5.6 mph 87% 0 in 0.00 W/m2
04:34 41 °F 37.4 °F 30.2 in East 9.3 mph 6.2 mph 87% 0 in 0.00 W/m2
04:39 41 °F 37.4 °F 30.2 in East 9.9 mph 7.5 mph 87% 0 in 0.00 W/m2
04:44 41 °F 37.4 °F 30.2 in East 10.6 mph 8.1 mph 87% 0 in 0.00 W/m2
04:49 41 °F 37.4 °F 30.2 in East 10.6 mph 8.7 mph 87% 0 in 0.00 W/m2
04:54 41 °F 37.4 °F 30.2 in East 10.6 mph 8.1 mph 87% 0 in 0.00 W/m2
04:59 41 °F 37.4 °F 30.2 in East 9.3 mph 6.8 mph 87% 0 in 0.00 W/m2
05:04 41 °F 37.4 °F 30.2 in East 11.8 mph 9.3 mph 87% 0 in 0.00 W/m2
05:09 41 °F 37.4 °F 30.2 in East 10.6 mph 7.5 mph 87% 0 in 0.00 W/m2
05:14 41 °F 37.4 °F 30.2 in East 9.3 mph 6.2 mph 87% 0 in 0.00 W/m2
05:19 41 °F 37.4 °F 30.2 in East 8.1 mph 6.8 mph 87% 0 in 0.00 W/m2
05:24 41 °F 37.4 °F 30.2 in East 10.6 mph 8.1 mph 87% 0 in 0.00 W/m2
05:29 41 °F 37.4 °F 30.2 in East 10.6 mph 8.7 mph 87% 0 in 0.00 W/m2
05:34 41 °F 37.4 °F 30.2 in East 11.8 mph 8.7 mph 87% 0 in 0.00 W/m2
05:39 41 °F 37.4 °F 30.2 in East 11.8 mph 9.3 mph 87% 0 in 0.00 W/m2
05:44 41 °F 37.4 °F 30.2 in East 10.6 mph 8.7 mph 87% 0 in 0.00 W/m2
05:49 41 °F 37.4 °F 30.2 in East 10.6 mph 9.3 mph 87% 0 in 0.00 W/m2
05:54 41 °F 37.4 °F 30.2 in East 10.6 mph 7.5 mph 87% 0 in 0.00 W/m2
05:59 41 °F 37.4 °F 30.2 in East 6.8 mph 5.6 mph 87% 0 in 0.00 W/m2
06:04 41 °F 37.4 °F 30.2 in East 11.8 mph 9.3 mph 87% 0 in 0.00 W/m2
06:09 41 °F 37.4 °F 30.2 in East 10.6 mph 7.5 mph 87% 0 in 0.00 W/m2
06:14 41 °F 37.4 °F 30.2 in East 8.1 mph 6.2 mph 87% 0 in 0.00 W/m2
06:19 41 °F 37.4 °F 30.2 in East 9.9 mph 7.5 mph 87% 0 in 0.00 W/m2
06:24 41 °F 37.4 °F 30.2 in East 10.6 mph 8.7 mph 87% 0 in 0.00 W/m2
06:29 41 °F 37.4 °F 30.2 in East 9.3 mph 7.5 mph 87% 0 in 0.00 W/m2
06:34 41 °F 37.4 °F 30.2 in East 9.3 mph 7.5 mph 87% 0 in 0.00 W/m2
06:39 41 °F 37.4 °F 30.2 in East 9.3 mph 6.8 mph 87% 0 in 0.00 W/m2
06:44 41 °F 37.4 °F 30.2 in East 9.3 mph 6.2 mph 87% 0 in 0.00 W/m2
06:49 41 °F 37.4 °F 30.2 in East 9.3 mph 6.8 mph 87% 0 in 0.00 W/m2
06:54 41 °F 37.4 °F 30.2 in East 9.9 mph 7.5 mph 87% 0 in 0.00 W/m2
06:59 41 °F 37.4 °F 30.2 in East 10.6 mph 7.5 mph 87% 0 in 0.00 W/m2
07:04 41 °F 37.4 °F 30.2 in East 10.6 mph 8.1 mph 87% 0 in 0.00 W/m2
07:09 41 °F 37.4 °F 30.2 in East 11.8 mph 8.7 mph 87% 0 in 0.00 W/m2
07:14 41 °F 37.4 °F 30.2 in East 11.8 mph 8.1 mph 87% 0 in 0.00 W/m2
07:19 41 °F 37.4 °F 30.2 in East 9.9 mph 8.1 mph 87% 0 in 0.00 W/m2
07:24 41 °F 37.4 °F 30.2 in East 10.6 mph 7.5 mph 87% 0 in 0.00 W/m2
07:29 41 °F 37.4 °F 30.2 in East 6.2 mph 1.9 mph 87% 0 in 0.00 W/m2
07:34 41 °F 37.4 °F 30.2 in East 8.1 mph 6.8 mph 87% 0 in 0.00 W/m2
07:39 41 °F 37.4 °F 30.2 in East 9.3 mph 6.8 mph 88% 0 in 0.00 W/m2
07:44 41 °F 37.4 °F 30.2 in East 9.3 mph 5.6 mph 88% 0 in 0.00 W/m2
07:49 41 °F 37.4 °F 30.2 in East 8.7 mph 6.8 mph 88% 0 in 0.00 W/m2
07:54 41 °F 37.4 °F 30.2 in East 9.3 mph 6.2 mph 88% 0 in 0.00 W/m2
07:59 41 °F 37.4 °F 30.2 in East 9.3 mph 6.8 mph 88% 0 in 0.00 W/m2
08:04 41 °F 37.4 °F 30.2 in East 9.3 mph 6.2 mph 88% 0 in 0.00 W/m2
08:09 41 °F 37.4 °F 30.2 in East 10.6 mph 8.1 mph 88% 0 in 0.00 W/m2
08:14 41 °F 37.4 °F 30.2 in East 10.6 mph 7.5 mph 88% 0 in 0.00 W/m2
08:19 41 °F 37.4 °F 30.2 in East 10.6 mph 7.5 mph 88% 0 in 0.00 W/m2
08:24 41 °F 37.4 °F 30.2 in ESE 9.3 mph 4.3 mph 88% 0 in 0.00 W/m2
08:29 41 °F 37.4 °F 30.2 in ESE 5 mph 1.2 mph 88% 0 in 0.00 W/m2
08:34 41 °F 37.4 °F 30.2 in ESE 4.3 mph 1.2 mph 88% 0 in 0.00 W/m2
08:39 41 °F 37.4 °F 30.2 in ESE 5 mph 1.9 mph 88% 0 in 0.00 W/m2
08:44 41 °F 37.4 °F 30.2 in ESE 5 mph 1.9 mph 89% 0 in 0.00 W/m2
08:49 41 °F 37.4 °F 30.2 in Calm     89% 0 in 0.00 W/m2
08:54 41 °F 37.4 °F 30.2 in ESE 8.7 mph 2.5 mph 89% 0 in 0.00 W/m2
08:59 39.2 °F 37.4 °F 30.2 in ESE 9.3 mph 2.5 mph 89% 0 in 0.00 W/m2
09:04 39.2 °F 37.4 °F 30.2 in ESE 5 mph 1.2 mph 89% 0 in 0.00 W/m2
09:09 39.2 °F 37.4 °F 30.2 in ESE 5 mph 3.1 mph 89% 0 in 0.00 W/m2
09:14 39.2 °F 37.4 °F 30.2 in ESE 6.2 mph 3.7 mph 89% 0 in 0.00 W/m2
09:19 39.2 °F 35.6 °F 30.2 in SE 6.2 mph 1.2 mph 89% 0 in 0.00 W/m2
09:24 39.2 °F 35.6 °F 30.2 in SE 5 mph 1.9 mph 89% 0 in 0.00 W/m2
09:29 39.2 °F 35.6 °F 30.2 in Calm     89% 0 in 0.00 W/m2
09:34 39.2 °F 35.6 °F 30.2 in SE 6.2 mph 3.1 mph 89% 0 in 0.00 W/m2
09:39 39.2 °F 35.6 °F 30.2 in SE 6.8 mph 3.1 mph 89% 0 in 0.00 W/m2
09:44 39.2 °F 35.6 °F 30.2 in SE 6.8 mph 2.5 mph 89% 0 in 0.00 W/m2
09:49 39.2 °F 35.6 °F 30.2 in SE 5.6 mph 1.2 mph 90% 0 in 0.00 W/m2
09:54 39.2 °F 35.6 °F 30.1 in SE 4.3 mph 1.9 mph 90% 0 in 0.00 W/m2
09:59 39.2 °F 35.6 °F 30.1 in SE 6.8 mph 2.5 mph 90% 0 in 0.00 W/m2
10:04 39.2 °F 35.6 °F 30.2 in SE 5 mph 2.5 mph 90% 0 in 0.00 W/m2
10:09 39.2 °F 35.6 °F 30.1 in SE 3.7 mph 0.6 mph 90% 0 in 0.00 W/m2
10:14 39.2 °F 35.6 °F 30.1 in SE 1.2 mph   90% 0 in 0.00 W/m2
10:19 39.2 °F 35.6 °F 30.1 in SE 3.7 mph 1.2 mph 90% 0 in 0.00 W/m2
10:24 39.2 °F 35.6 °F 30.1 in Calm     90% 0 in 0.00 W/m2
10:29 39.2 °F 35.6 °F 30.1 in SE 6.8 mph 2.5 mph 90% 0 in 0.00 W/m2
10:34 39.2 °F 35.6 °F 30.1 in SE 9.3 mph 3.7 mph 90% 0 in 0.00 W/m2
10:39 39.2 °F 35.6 °F 30.1 in SE 6.8 mph 3.1 mph 90% 0 in 0.00 W/m2
10:44 39.2 °F 35.6 °F 30.1 in SE 6.2 mph 3.1 mph 90% 0 in 0.00 W/m2
10:49 39.2 °F 35.6 °F 30.1 in SE 4.3 mph 2.5 mph 90% 0 in 0.00 W/m2
10:54 39.2 °F 35.6 °F 30.1 in SE 6.8 mph 3.1 mph 90% 0 in 0.00 W/m2
10:59 39.2 °F 35.6 °F 30.1 in SE 6.2 mph 2.5 mph 90% 0 in 0.00 W/m2
11:04 39.2 °F 35.6 °F 30.1 in SE 6.2 mph 2.5 mph 90% 0 in 0.00 W/m2
11:09 39.2 °F 35.6 °F 30.1 in SE 5.6 mph 2.5 mph 90% 0 in 0.00 W/m2
11:14 39.2 °F 37.4 °F 30.1 in SE 6.2 mph 3.7 mph 90% 0 in 0.00 W/m2
11:19 39.2 °F 37.4 °F 30.1 in SE 6.2 mph 3.7 mph 90% 0 in 0.00 W/m2
11:24 39.2 °F 37.4 °F 30.1 in SE 5 mph 2.5 mph 90% 0 in 0.00 W/m2
11:29 39.2 °F 37.4 °F 30.1 in SE 4.3 mph 1.9 mph 90% 0 in 0.00 W/m2
11:34 39.2 °F 35.6 °F 30.1 in SE 6.8 mph 3.7 mph 90% 0 in 0.00 W/m2
11:39 39.2 °F 35.6 °F 30.1 in SE 6.8 mph 3.7 mph 90% 0 in 0.00 W/m2
11:44 39.2 °F 37.4 °F 30.1 in SE 6.8 mph 3.7 mph 90% 0 in 0.00 W/m2
11:49 39.2 °F 37.4 °F 30.1 in SE 6.2 mph 3.7 mph 90% 0 in 0.00 W/m2
11:54 39.2 °F 37.4 °F 30.1 in SE 5.6 mph 3.7 mph 90% 0 in 0.00 W/m2
11:59 39.2 °F 37.4 °F 30.1 in Calm     90% 0 in 0.00 W/m2
12:04 39.2 °F 37.4 °F 30.1 in SE 3.7 mph 1.2 mph 90% 0 in 0.00 W/m2
12:09 39.2 °F 37.4 °F 30.1 in SE 3.7 mph 1.9 mph 90% 0 in 0.00 W/m2
12:14 39.2 °F 37.4 °F 30.1 in Calm     90% 0 in 0.00 W/m2
12:19 39.2 °F 37.4 °F 30.1 in Calm     90% 0 in 0.00 W/m2
12:24 39.2 °F 37.4 °F 30.1 in Calm     90% 0 in 0.00 W/m2
12:29 39.2 °F 37.4 °F 30.1 in Calm     90% 0 in 0.00 W/m2
12:34 39.2 °F 37.4 °F 30.1 in SE 6.2 mph 3.7 mph 90% 0 in 0.00 W/m2
12:39 39.2 °F 37.4 °F 30.1 in SE 5 mph 3.7 mph 90% 0 in 0.00 W/m2
12:44 39.2 °F 37.4 °F 30.1 in SE 5 mph 4.3 mph 90% 0 in 0.00 W/m2
12:49 39.2 °F 37.4 °F 30.1 in SE 9.3 mph 4.3 mph 90% 0 in 0.00 W/m2
12:54 39.2 °F 37.4 °F 30.1 in ESE 10.6 mph 5 mph 90% 0 in 0.00 W/m2
12:59 39.2 °F 37.4 °F 30.1 in ESE 6.8 mph 5 mph 90% 0 in 0.00 W/m2
13:04 39.2 °F 37.4 °F 30.1 in ESE 6.8 mph 4.3 mph 90% 0 in 0.00 W/m2
13:09 39.2 °F 37.4 °F 30.1 in ESE 6.2 mph 4.3 mph 89% 0 in 0.00 W/m2
13:14 39.2 °F 37.4 °F 30.1 in ESE 6.2 mph 3.7 mph 89% 0 in 0.00 W/m2
13:19 39.2 °F 37.4 °F 30.1 in SE 9.3 mph 5 mph 89% 0 in 0.00 W/m2
13:24 39.2 °F 37.4 °F 30.1 in SE 5 mph 3.1 mph 89% 0 in 0.00 W/m2
13:29 39.2 °F 37.4 °F 30.1 in SE 5 mph 2.5 mph 89% 0 in 0.00 W/m2
13:34 39.2 °F 37.4 °F 30.1 in SE 6.8 mph 3.7 mph 89% 0 in 0.00 W/m2
13:39 39.2 °F 37.4 °F 30.1 in SE 6.8 mph 3.1 mph 89% 0 in 0.00 W/m2
13:44 39.2 °F 37.4 °F 30.1 in SE 6.8 mph 3.7 mph 89% 0 in 0.00 W/m2
13:49 39.2 °F 37.4 °F 30.1 in SE 6.2 mph 1.9 mph 89% 0 in 0.00 W/m2
13:54 39.2 °F 37.4 °F 30.1 in SE 6.2 mph 2.5 mph 89% 0 in 0.00 W/m2
13:59 39.2 °F 37.4 °F 30.1 in SE 6.8 mph 3.7 mph 89% 0 in 0.00 W/m2
14:04 39.2 °F 37.4 °F 30 in SE 6.8 mph 2.5 mph 89% 0 in 0.00 W/m2
14:09 39.2 °F 37.4 °F 30 in SE 5 mph 1.9 mph 89% 0 in 0.00 W/m2
14:14 39.2 °F 37.4 °F 30 in SE 6.8 mph 3.7 mph 89% 0 in 0.00 W/m2
14:19 39.2 °F 37.4 °F 30 in SE 6.2 mph 3.7 mph 88% 0 in 0.00 W/m2
14:24 39.2 °F 37.4 °F 30 in SE 10.6 mph 5 mph 88% 0 in 0.00 W/m2
14:29 39.2 °F 37.4 °F 30 in SE 8.1 mph 5 mph 88% 0 in 0.00 W/m2
14:34 39.2 °F 37.4 °F 30 in SE 9.3 mph 4.3 mph 88% 0 in 0.00 W/m2
14:39 39.2 °F 37.4 °F 30 in SE 6.8 mph 3.7 mph 88% 0 in 0.00 W/m2
14:44 39.2 °F 37.4 °F 30 in SE 6.8 mph 4.3 mph 88% 0 in 0.00 W/m2
14:49 39.2 °F 37.4 °F 30 in SE 5 mph 2.5 mph 88% 0 in 0.00 W/m2
14:54 39.2 °F 35.6 °F 30 in SE 6.2 mph 3.1 mph 87% 0 in 0.00 W/m2
14:59 39.2 °F 35.6 °F 30 in SE 5 mph 1.2 mph 87% 0 in 0.00 W/m2
15:04 39.2 °F 35.6 °F 30 in SE 5 mph 2.5 mph 87% 0 in 0.00 W/m2
15:09 39.2 °F 35.6 °F 30 in SE 5 mph 2.5 mph 87% 0 in 0.00 W/m2
15:14 39.2 °F 35.6 °F 30 in SE 6.2 mph 3.7 mph 87% 0 in 0.00 W/m2
15:19 39.2 °F 35.6 °F 30 in SE 4.3 mph 3.1 mph 87% 0 in 0.00 W/m2
15:24 39.2 °F 35.6 °F 30 in Calm     87% 0 in 0.00 W/m2
15:29 39.2 °F 35.6 °F 30 in Calm     87% 0 in 0.00 W/m2
15:34 39.2 °F 35.6 °F 30 in Calm     87% 0 in 0.00 W/m2
15:39 39.2 °F 35.6 °F 30 in Calm     87% 0 in 0.00 W/m2
15:44 39.2 °F 35.6 °F 30 in Calm     87% 0 in 0.00 W/m2
15:49 39.2 °F 35.6 °F 30 in Calm     87% 0 in 0.00 W/m2
15:54 39.2 °F 35.6 °F 30 in Calm     87% 0 in 0.00 W/m2
15:59 37.4 °F 35.6 °F 30 in Calm     87% 0 in 0.00 W/m2
16:04 37.4 °F 35.6 °F 30 in Calm     87% 0 in 0.00 W/m2
16:09 37.4 °F 33.8 °F 30 in Calm     87% 0 in 0.00 W/m2
16:14 37.4 °F 33.8 °F 30 in Calm     87% 0 in 0.00 W/m2
16:19 37.4 °F 33.8 °F 30 in Calm     87% 0 in 0.00 W/m2
16:24 37.4 °F 33.8 °F 30 in Calm     88% 0 in 0.00 W/m2
16:29 37.4 °F 33.8 °F 30 in Calm     88% 0 in 0.00 W/m2
16:34 37.4 °F 33.8 °F 30 in Calm     88% 0 in 0.00 W/m2
16:39 37.4 °F 33.8 °F 30 in Calm     88% 0 in 0.00 W/m2
16:44 37.4 °F 33.8 °F 30 in Calm     88% 0 in 0.00 W/m2
16:49 37.4 °F 33.8 °F 30 in Calm     88% 0 in 0.00 W/m2
16:54 37.4 °F 33.8 °F 30 in Calm     88% 0 in 0.00 W/m2
16:59 37.4 °F 33.8 °F 30 in Calm     89% 0 in 0.00 W/m2
17:04 35.6 °F 33.8 °F 30 in Calm     89% 0 in 0.00 W/m2
17:09 35.6 °F 33.8 °F 30 in Calm     89% 0 in 0.00 W/m2
17:14 35.6 °F 33.8 °F 30 in Calm     89% 0 in 0.00 W/m2
17:19 35.6 °F 33.8 °F 30 in Calm     89% 0 in 0.00 W/m2
17:24 35.6 °F 33.8 °F 30 in SE 2.5 mph 0.6 mph 89% 0 in 0.00 W/m2
17:29 35.6 °F 33.8 °F 30 in Calm     89% 0 in 0.00 W/m2
17:34 35.6 °F 33.8 °F 30 in Calm     89% 0 in 0.00 W/m2
17:39 35.6 °F 33.8 °F 30 in Calm     89% 0 in 0.00 W/m2
17:44 35.6 °F 33.8 °F 30 in Calm     89% 0 in 0.00 W/m2
17:49 35.6 °F 33.8 °F 30 in Calm     89% 0 in 0.00 W/m2
17:54 35.6 °F 33.8 °F 30 in Calm     89% 0 in 0.00 W/m2
17:59 35.6 °F 32 °F 30 in Calm     89% 0 in 0.00 W/m2
18:04 35.6 °F 32 °F 30 in Calm     89% 0 in 0.00 W/m2
18:09 35.6 °F 32 °F 30 in Calm     89% 0 in 0.00 W/m2
18:14 35.6 °F 32 °F 30 in Calm     89% 0 in 0.00 W/m2
18:19 35.6 °F 32 °F 30 in Calm     89% 0 in 0.00 W/m2
18:24 35.6 °F 33.8 °F 30 in Calm     90% 0 in 0.00 W/m2
18:29 35.6 °F 33.8 °F 30 in Calm     90% 0 in 0.00 W/m2
18:34 35.6 °F 33.8 °F 30 in SE 2.5 mph 0.6 mph 90% 0 in 0.00 W/m2
18:39 35.6 °F 33.8 °F 30 in Calm     90% 0 in 0.00 W/m2
18:44 37.4 °F 33.8 °F 30 in SE 5 mph 1.9 mph 90% 0 in 0.00 W/m2
18:49 37.4 °F 33.8 °F 30 in SE 2.5 mph 0.6 mph 90% 0 in 0.00 W/m2
18:54 37.4 °F 33.8 °F 30 in Calm     90% 0 in 0.00 W/m2
18:59 37.4 °F 33.8 °F 30 in Calm     90% 0 in 0.00 W/m2
19:04 37.4 °F 33.8 °F 30 in Calm     90% 0 in 0.00 W/m2
19:09 37.4 °F 33.8 °F 30 in Calm     90% 0 in 0.00 W/m2
19:14 37.4 °F 33.8 °F 30 in Calm     89% 0 in 0.00 W/m2
19:19 37.4 °F 33.8 °F 30 in Calm     89% 0 in 0.00 W/m2
19:24 37.4 °F 33.8 °F 30 in Calm     90% 0 in 0.00 W/m2
19:29 37.4 °F 33.8 °F 29.9 in Calm     90% 0 in 0.00 W/m2
19:34 37.4 °F 33.8 °F 29.9 in Calm     90% 0 in 0.00 W/m2
19:39 37.4 °F 33.8 °F 29.9 in Calm     90% 0 in 0.00 W/m2
19:44 37.4 °F 33.8 °F 29.9 in Calm     90% 0 in 0.00 W/m2
19:49 37.4 °F 33.8 °F 29.9 in SE 5 mph 2.5 mph 90% 0 in 0.00 W/m2
19:54 37.4 °F 33.8 °F 29.9 in SE 5 mph 3.7 mph 90% 0 in 0.00 W/m2
19:59 37.4 °F 35.6 °F 29.9 in SE 6.2 mph 3.1 mph 90% 0 in 0.00 W/m2
20:04 37.4 °F 35.6 °F 29.9 in SE 10.6 mph 5.6 mph 90% 0 in 0.00 W/m2
20:09 37.4 °F 35.6 °F 29.9 in SE 11.2 mph 6.2 mph 90% 0 in 0.00 W/m2
20:14 37.4 °F 35.6 °F 29.9 in SE 11.8 mph 6.8 mph 90% 0 in 0.00 W/m2
20:19 37.4 °F 35.6 °F 29.9 in SE 11.8 mph 6.2 mph 90% 0 in 0.00 W/m2
20:24 37.4 °F 35.6 °F 29.9 in SE 10.6 mph 5.6 mph 89% 0 in 0.00 W/m2
20:29 37.4 °F 35.6 °F 29.9 in SE 11.8 mph 6.8 mph 89% 0 in 0.00 W/m2
20:34 37.4 °F 35.6 °F 29.9 in SE 11.8 mph 6.8 mph 89% 0 in 0.00 W/m2
20:39 37.4 °F 35.6 °F 29.9 in SE 11.8 mph 6.8 mph 89% 0 in 0.00 W/m2
20:44 37.4 °F 33.8 °F 29.9 in SE 11.8 mph 5 mph 88% 0 in 0.00 W/m2
20:49 37.4 °F 33.8 °F 29.9 in SSE 6.8 mph 3.7 mph 88% 0 in 0.00 W/m2
20:54 37.4 °F 33.8 °F 29.9 in SE 10.6 mph 6.2 mph 88% 0 in 0.00 W/m2
20:59 37.4 °F 33.8 °F 29.9 in SE 11.8 mph 6.8 mph 88% 0 in 0.00 W/m2
21:04 37.4 °F 33.8 °F 29.9 in SE 14.3 mph 6.8 mph 88% 0 in 0.00 W/m2
21:09 37.4 °F 33.8 °F 29.9 in SE 10.6 mph 5 mph 88% 0 in 0.00 W/m2
21:14 37.4 °F 33.8 °F 29.9 in SE 9.3 mph 5 mph 89% 0 in 0.00 W/m2
21:19 35.6 °F 33.8 °F 29.9 in SE 6.8 mph 5 mph 89% 0 in 0.00 W/m2
21:24 35.6 °F 33.8 °F 29.9 in SE 6.2 mph 1.9 mph 89% 0 in 0.00 W/m2
21:29 35.6 °F 33.8 °F 29.9 in SE 8.1 mph 3.1 mph 89% 0 in 0.00 W/m2
21:34 35.6 °F 33.8 °F 29.9 in SE 9.3 mph 3.1 mph 89% 0 in 0.00 W/m2
21:39 35.6 °F 33.8 °F 29.9 in SE 9.3 mph 4.3 mph 89% 0 in 0.00 W/m2
21:44 35.6 °F 33.8 °F 29.9 in SE 8.7 mph 3.1 mph 89% 0 in 0.00 W/m2
21:49 35.6 °F 33.8 °F 29.9 in SE 9.3 mph 3.7 mph 89% 0 in 0.00 W/m2
21:54 35.6 °F 33.8 °F 29.9 in SE 6.2 mph 4.3 mph 89% 0 in 0.00 W/m2
21:59 35.6 °F 33.8 °F 29.9 in SE 6.8 mph 3.1 mph 88% 0 in 0.00 W/m2
22:04 35.6 °F 33.8 °F 29.9 in SE 6.8 mph 1.9 mph 89% 0 in 0.00 W/m2
22:09 35.6 °F 33.8 °F 29.9 in SE 9.3 mph 3.7 mph 89% 0 in 0.00 W/m2
22:14 35.6 °F 33.8 °F 29.9 in SE 5 mph 2.5 mph 89% 0 in 0.00 W/m2
22:19 35.6 °F 33.8 °F 29.9 in SE 2.5 mph 0.6 mph 89% 0 in 0.00 W/m2
22:24 35.6 °F 33.8 °F 29.9 in SE 5 mph 1.9 mph 89% 0 in 0.00 W/m2
22:29 35.6 °F 33.8 °F 29.9 in SE 6.8 mph 3.1 mph 89% 0 in 0.00 W/m2
22:34 35.6 °F 33.8 °F 29.9 in SE 6.8 mph 3.1 mph 89% 0 in 0.00 W/m2
22:39 35.6 °F 33.8 °F 29.9 in SE 10.6 mph 5 mph 89% 0 in 0.00 W/m2
22:44 35.6 °F 33.8 °F 29.9 in SE 6.8 mph 3.1 mph 89% 0 in 0.00 W/m2
22:49 35.6 °F 33.8 °F 29.9 in SE 5 mph 3.1 mph 89% 0 in 0.00 W/m2
22:54 35.6 °F 32 °F 29.9 in SE 6.8 mph 3.7 mph 88% 0 in 0.00 W/m2
22:59 35.6 °F 32 °F 29.9 in SE 8.7 mph 3.7 mph 88% 0 in 0.00 W/m2
23:04 35.6 °F 33.8 °F 29.9 in SSE 9.3 mph 4.3 mph 88% 0 in 0.00 W/m2
23:09 35.6 °F 33.8 °F 29.9 in SE 6.8 mph 5 mph 88% 0 in 0.00 W/m2
23:14 35.6 °F 32 °F 29.9 in SE 6.8 mph 3.7 mph 87% 0 in 0.00 W/m2
23:19 35.6 °F 32 °F 29.9 in SE 9.3 mph 4.3 mph 87% 0 in 0.00 W/m2
23:24 35.6 °F 32 °F 29.9 in SE 11.8 mph 4.3 mph 87% 0 in 0.00 W/m2
23:29 35.6 °F 32 °F 29.9 in SE 6.8 mph 2.5 mph 87% 0 in 0.00 W/m2
23:34 35.6 °F 32 °F 29.9 in SE 10.6 mph 5 mph 87% 0 in 0.00 W/m2
23:39 35.6 °F 32 °F 29.9 in SE 10.6 mph 4.3 mph 86% 0 in 0.00 W/m2
23:44 35.6 °F 32 °F 29.9 in SSE 8.1 mph 3.7 mph 86% 0 in 0.00 W/m2
23:49 35.6 °F 32 °F 29.9 in SE 9.3 mph 5 mph 86% 0 in 0.00 W/m2
23:54 35.6 °F 32 °F 29.9 in SE 9.3 mph 5 mph 86% 0 in 0.00 W/m2
23:59 35.6 °F 32 °F 29.9 in SSE 11.8 mph 5 mph 86% 0 in 0.00 W/m2
Vejrstation Sortsø Strand
Compliments of Weather Underground - 2.25 mb

© 2006-2021 strandvejr.dk